Latest Coastal Weather Observations for Minlaton Airport

IDS60701

Issued at 11:31 am CST Tuesday 28 June 2022 (issued every 10 minutes, with the page automatically refreshed every 10 minutes)

About coastal observations | Map of coastal stations | Coastal observations for SA | Marine services | Other Formats
Station Details ID: 022031 Name: MINLATON AERO Lat: -34.75 Lon: 137.53 Height: 32.0 m
Data from the previous 72 hours. | See also: Recent months at Minlaton Airport
Date/Time
CST
Wind Sea
Height
m
Swell Vis
km
Cloud Weather Temp
°C
Press
MSL
hPa
Rain since
9am
mm
Dir  Spd
kts
Gust
kts
Height
m
Period
s
Dir
28/11:30am N 18 22 - - - - - - - 14.7 1028.2 0.0
28/11:00am N 18 22 - - - - - - - 14.0 1028.5 0.0
28/10:30am N 15 18 - - - - - - - 13.2 1028.8 0.0
28/10:00am N 14 18 - - - - - - - 12.1 1029.1 0.0
28/09:30am N 12 15 - - - - - - - 10.6 1029.1 0.0
28/09:00am N 11 13 - - - - - - - 8.8 1029.1 0.0
28/08:30am N 10 12 - - - - - - - 7.6 1029.2 0.0
28/08:00am N 10 12 - - - - - - - 6.7 1029.0 0.0
28/07:30am NNE 12 14 - - - - - - - 6.6 1029.0 0.0
28/07:00am NNE 12 13 - - - - - - - 5.8 1028.8 0.0
28/06:30am NNE 11 13 - - - - - - - 6.1 1028.6 0.0
28/06:00am NE 11 12 - - - - - - - 5.7 1028.4 0.0
28/05:30am NE 11 13 - - - - - - - 6.0 1028.3 0.0
28/05:00am NE 10 11 - - - - - - - 6.2 1028.3 0.0
28/04:30am NE 9 11 - - - - - - - 5.8 1028.5 0.0
28/04:00am NE 9 11 - - - - - - - 5.6 1028.7 0.0
28/03:30am NNE 7 9 - - - - - - - 4.6 1029.0 0.0
28/03:00am NE 10 11 - - - - - - - 6.4 1029.3 0.0
28/02:30am NE 12 17 - - - - - - - 7.1 1029.4 0.0
28/02:00am NE 12 14 - - - - - - - 6.9 1029.4 0.0
28/01:30am NE 12 14 - - - - - - - 7.4 1029.7 0.0
28/01:00am ENE 11 13 - - - - - - - 7.5 1029.9 0.0
28/12:30am ENE 11 12 - - - - - - - 7.6 1030.2 0.0
28/12:00am ENE 10 11 - - - - - - - 6.1 1030.4 0.0
 
Date/Time
CST
Wind Sea
Height
m
Swell Vis
km
Cloud Weather Temp
°C
Press
MSL
hPa
Rain since
9am
mm
Dir  Spd
kts
Gust
kts
Height
m
Period
s
Dir
27/11:30pm ENE 10 11 - - - - - - - 6.0 1030.9 0.0
27/11:00pm ENE 11 11 - - - - - - - 6.3 1031.2 0.0
27/10:30pm ENE 10 10 - - - - - - - 6.2 1031.5 0.0
27/10:00pm ENE 10 11 - - - - - - - 7.1 1031.7 0.0
27/09:30pm ENE 10 11 - - - - - - - 6.6 1032.2 0.0
27/09:00pm E 9 10 - - - - - - - 6.7 1032.5 0.0
27/08:30pm E 11 11 - - - - - - - 6.5 1032.5 0.0
27/08:00pm E 9 9 - - - - - - - 6.8 1032.8 0.0
27/07:30pm E 8 9 - - - - - - - 7.5 1032.8 0.0
27/07:00pm E 9 10 - - - - - - - 7.6 1032.7 0.0
27/06:30pm E 9 9 - - - - - - - 7.8 1032.5 0.0
27/06:00pm ESE 7 8 - - - - - - - 7.4 1032.6 0.0
27/05:30pm E 6 7 - - - - - - - 9.4 1032.6 0.0
27/05:00pm ENE 6 7 - - - - - - - 11.3 1032.5 0.0
27/04:30pm ENE 7 8 - - - - - - - 12.4 1032.6 0.0
27/04:00pm ENE 7 9 - - - - - - - 12.8 1032.6 0.0
27/03:30pm NE 6 9 - - - - - - - 13.2 1032.7 0.0
27/03:00pm NE 9 11 - - - - - - - 13.3 1033.0 0.0
27/02:30pm NE 8 10 - - - - - - - 13.5 1033.3 0.0
27/02:00pm E 6 14 - - - - - - - 14.2 1033.4 0.0
27/01:30pm ENE 4 9 - - - - - - - 14.0 1034.2 0.0
27/01:00pm NE 7 9 - - - - - - - 13.8 1034.5 0.0
27/12:30pm NE 7 11 - - - - - - - 13.4 1034.8 0.0
27/12:00pm NNE 8 12 - - - - - - - 13.6 1035.2 0.0
27/11:30am NE 7 11 - - - - - - - 12.8 1035.6 0.0
27/11:00am NNE 10 12 - - - - - - - 12.7 1036.0 0.0
27/10:30am NE 10 12 - - - - - - - 12.0 1036.2 0.0
27/10:00am NE 11 12 - - - - - - - 11.7 1036.1 0.0
27/09:30am NE 9 11 - - - - - - - 11.0 1035.9 0.0
27/09:00am NE 8 9 - - - - - - - 9.9 1035.5 0.6
27/08:30am NE 8 11 - - - - - - - 9.5 1035.2 0.6
27/08:00am NE 9 11 - - - - - - - 8.3 1034.6 0.6
27/07:30am NE 9 12 - - - - - - - 6.9 1034.4 0.6
27/07:00am NE 9 10 - - - - - - - 7.5 1034.0 0.6
27/06:30am NE 7 8 - - - - - - - 8.5 1034.0 0.6
27/06:00am E 7 9 - - - - - - - 8.4 1033.6 0.6
27/05:30am E 7 9 - - - - - - - 7.9 1033.7 0.6
27/05:00am E 6 7 - - - - - - - 7.1 1033.6 0.6
27/04:30am E 7 9 - - - - - - - 6.2 1033.4 0.6
27/04:00am ESE 7 10 - - - - - - - 4.6 1033.2 0.6
27/03:30am ESE 6 7 - - - - - - - 4.7 1033.3 0.6
27/03:00am ESE 6 7 - - - - - - - 4.9 1033.5 0.6
27/02:30am SE 7 8 - - - - - - - 5.6 1033.6 0.6
27/02:00am ESE 7 7 - - - - - - - 4.9 1033.3 0.6
27/01:30am ESE 8 8 - - - - - - - 5.7 1033.5 0.6
27/01:00am SE 8 8 - - - - - - - 6.0 1033.7 0.6
27/12:30am SE 9 10 - - - - - - - 6.5 1033.7 0.6
27/12:00am SE 10 12 - - - - - - - 8.4 1033.8 0.6
 
Date/Time
CST
Wind Sea
Height
m
Swell Vis
km
Cloud Weather Temp
°C
Press
MSL
hPa
Rain since
9am
mm
Dir  Spd
kts
Gust
kts
Height
m
Period
s
Dir
26/11:30pm SE 12 13 - - - - - - - 8.5 1033.6 0.6
26/11:00pm SE 9 10 - - - - - - - 7.3 1033.2 0.6
26/10:30pm SE 11 11 - - - - - - - 8.1 1033.0 0.6
26/10:00pm SE 10 11 - - - - - - - 8.4 1032.9 0.6
26/09:30pm SSE 10 11 - - - - - - - 8.6 1032.7 0.6
26/09:00pm S 5 6 - - - - - - - 7.4 1032.4 0.6
26/08:30pm SSE 7 8 - - - - - - - 8.4 1032.1 0.6
26/08:00pm SSE 8 9 - - - - - - - 9.5 1031.8 0.6
26/07:30pm SSE 7 8 - - - - - - - 9.5 1031.6 0.6
26/07:00pm SSE 7 8 - - - - - - - 9.3 1031.3 0.6
26/06:30pm SE 9 11 - - - - - - - 10.2 1031.0 0.6
26/06:00pm SSE 7 8 - - - - - - - 10.3 1030.6 0.6
26/05:30pm S 11 13 - - - - - - - 12.3 1030.2 0.6
26/05:00pm SSW 8 9 - - - - - - - 12.3 1029.8 0.6
26/04:30pm S 10 13 - - - - - - - 13.3 1029.3 0.6
26/04:00pm S 9 14 - - - - - - - 13.7 1029.2 0.6
26/03:30pm S 11 15 - - - - - - - 14.1 1028.9 0.6
26/03:00pm SSW 11 14 - - - - - - - 13.1 1028.8 0.4
26/02:49pm S 14 22 - - - - - - - 12.7 1028.6 0.4
26/02:30pm SW 7 10 - - - - - - - 14.3 1028.3 0.4
26/02:00pm SW 8 12 - - - - - - - 14.7 1028.3 0.4
26/01:30pm W 12 15 - - - - - - - 14.1 1028.2 0.4
26/01:00pm SSW 9 11 - - - - - - - 15.0 1028.2 0.4
26/12:30pm SW 12 16 - - - - - - - 14.1 1028.3 0.4
26/12:00pm SW 17 21 - - - - - - - 12.9 1028.6 0.2
26/11:30am WSW 14 23 - - - - - - - 13.8 1028.6 0.2
26/11:00am WSW 11 15 - - - - - - - 14.7 1028.5 0.2
26/10:30am WSW 7 9 - - - - - - - 14.1 1028.7 0.2
26/10:00am WSW 10 18 - - - - - - - 13.3 1028.6 0.2
26/09:30am W 9 13 - - - - - - - 13.1 1028.1 0.0
26/09:00am WSW 10 12 - - - - - - - 13.2 1027.8 3.4
26/08:30am WSW 5 8 - - - - - - - 12.1 1027.5 3.4
26/08:00am WSW 6 7 - - - - - - - 11.5 1027.2 3.4
26/07:30am W 8 9 - - - - - - - 11.0 1026.9 3.4
26/07:00am W 9 11 - - - - - - - 11.2 1026.6 3.4
26/06:30am W 9 12 - - - - - - - 11.9 1026.1 3.4
26/06:00am N 5 6 - - - - - - - 9.9 1025.7 2.8
26/05:30am N 5 5 - - - - - - - 9.8 1025.4 2.8
26/05:00am N 5 5 - - - - - - - 10.1 1025.2 2.8
26/04:30am NW 5 6 - - - - - - - 9.5 1025.2 2.8
26/04:00am WNW 5 6 - - - - - - - 10.3 1025.1 2.8
26/03:30am W 4 5 - - - - - - - 11.0 1025.1 2.8
26/03:00am SW 5 8 - - - - - - Recent precip. 11.2 1025.0 2.8
26/02:30am SSW 11 14 - - - - - - - 11.4 1025.0 2.6
26/02:00am WNW 10 13 - - - - - - - 13.0 1024.9 2.4
26/01:30am WNW 9 11 - - - - - - - 12.0 1024.8 2.4
26/01:00am WNW 10 11 - - - - - - - 12.1 1024.6 2.4
26/12:30am WNW 9 10 - - - - - - - 11.5 1024.7 2.4
26/12:00am W 7 8 - - - - - - - 11.2 1024.7 2.4
 
Date/Time
CST
Wind Sea
Height
m
Swell Vis
km
Cloud Weather Temp
°C
Press
MSL
hPa
Rain since
9am
mm
Dir  Spd
kts
Gust
kts
Height
m
Period
s
Dir
25/11:30pm W 11 14 - - - - - - - 12.3 1024.8 2.4
25/11:00pm W 13 21 - - - - - - - 12.5 1024.7 2.4
25/10:30pm NW 8 9 - - - - - - - 11.3 1024.5 1.6
25/10:00pm WNW 7 8 - - - - - - - 11.0 1024.6 1.6
25/09:30pm WNW 9 11 - - - - - - - 11.6 1024.3 1.6
25/09:00pm NNW 7 9 - - - - - - - 10.3 1024.2 1.4
25/08:30pm NNW 7 8 - - - - - - - 9.5 1024.1 1.4
25/08:00pm NNW 7 9 - - - - - - - 9.6 1023.9 1.4
25/07:30pm NNW 7 8 - - - - - - - 9.7 1023.6 1.4
25/07:00pm NW 8 9 - - - - - - - 9.8 1023.4 1.4
25/06:30pm NW 8 8 - - - - - - - 11.0 1022.9 1.4
25/06:00pm NW 7 10 - - - - - - Rain 12.0 1022.5 1.4
25/05:30pm NNW 6 7 - - - - - - - 11.9 1022.5 1.2
25/05:00pm NW 8 9 - - - - - - - 12.1 1022.6 1.2
25/04:30pm W 8 13 - - - - - - - 12.4 1022.2 1.2
25/04:00pm WNW 15 21 - - - - - - - 12.9 1022.3 1.0
25/03:30pm NW 14 19 - - - - - - - 13.6 1022.2 0.0
25/03:00pm NW 15 17 - - - - - - - 14.9 1022.2 0.0
25/02:30pm NW 15 19 - - - - - - - 15.1 1022.2 0.0
25/02:00pm NW 15 18 - - - - - - - 15.5 1022.2 0.0
25/01:30pm NW 16 20 - - - - - - - 15.9 1022.4 0.0
25/01:00pm NW 18 21 - - - - - - - 15.7 1022.7 0.0
25/12:30pm NW 16 20 - - - - - - - 15.7 1022.7 0.0
25/12:00pm NW 17 21 - - - - - - - 15.5 1023.0 0.0

Other formats

Comma delimited format used in spreadsheet applications
http://www.bom.gov.au/fwo/IDS60701/IDS60701.95659.axf

JavaScript Object Notation format (JSON) in row-major order
http://www.bom.gov.au/fwo/IDS60701/IDS60701.95659.json

Data quality

Most of these data are generated automatically and are frequently updated. Quality checks on data are not normally performed. It is possible for incorrect values to appear. Refer to information at About Latest Weather Observations and please check the disclaimer before using these data.